sensor_id;sensor_type;location;lat;lon;timestamp;temperature;humidity
13256;DHT22;37913;48.370;10.930;2022-08-02T00:02:05;16.20;99.90
13256;DHT22;37913;48.370;10.930;2022-08-02T00:04:33;16.10;99.90
13256;DHT22;37913;48.370;10.930;2022-08-02T00:07:00;16.10;99.90
13256;DHT22;37913;48.370;10.930;2022-08-02T00:09:27;16.00;99.90
13256;DHT22;37913;48.370;10.930;2022-08-02T00:11:55;16.00;99.90
13256;DHT22;37913;48.370;10.930;2022-08-02T00:14:22;15.90;99.90
13256;DHT22;37913;48.370;10.930;2022-08-02T00:16:49;15.90;99.90
13256;DHT22;37913;48.370;10.930;2022-08-02T00:19:16;15.90;99.90
13256;DHT22;37913;48.370;10.930;2022-08-02T00:21:44;15.90;99.90
13256;DHT22;37913;48.370;10.930;2022-08-02T00:24:11;15.80;99.90
13256;DHT22;37913;48.370;10.930;2022-08-02T00:26:41;15.80;99.90
13256;DHT22;37913;48.370;10.930;2022-08-02T00:29:07;15.80;99.90
13256;DHT22;37913;48.370;10.930;2022-08-02T00:31:34;15.80;99.90
13256;DHT22;37913;48.370;10.930;2022-08-02T00:34:02;15.80;99.90
13256;DHT22;37913;48.370;10.930;2022-08-02T00:36:29;15.70;99.90
13256;DHT22;37913;48.370;10.930;2022-08-02T00:38:57;15.70;99.90
13256;DHT22;37913;48.370;10.930;2022-08-02T00:41:24;15.70;99.90
13256;DHT22;37913;48.370;10.930;2022-08-02T00:43:51;15.70;99.90
13256;DHT22;37913;48.370;10.930;2022-08-02T00:46:19;15.80;99.90
13256;DHT22;37913;48.370;10.930;2022-08-02T00:48:46;15.80;99.90
13256;DHT22;37913;48.370;10.930;2022-08-02T00:51:14;15.80;99.90
13256;DHT22;37913;48.370;10.930;2022-08-02T00:53:42;15.80;99.90
13256;DHT22;37913;48.370;10.930;2022-08-02T00:56:10;15.80;99.90
13256;DHT22;37913;48.370;10.930;2022-08-02T00:58:37;15.80;99.90
13256;DHT22;37913;48.370;10.930;2022-08-02T01:01:04;15.80;99.90
13256;DHT22;37913;48.370;10.930;2022-08-02T01:03:31;15.80;99.90
13256;DHT22;37913;48.370;10.930;2022-08-02T01:05:58;15.80;99.90
13256;DHT22;37913;48.370;10.930;2022-08-02T01:08:25;15.80;99.90
13256;DHT22;37913;48.370;10.930;2022-08-02T01:10:52;15.80;99.90
13256;DHT22;37913;48.370;10.930;2022-08-02T01:13:20;15.80;99.90
13256;DHT22;37913;48.370;10.930;2022-08-02T01:15:53;15.80;99.90
13256;DHT22;37913;48.370;10.930;2022-08-02T01:18:25;15.80;99.90
13256;DHT22;37913;48.370;10.930;2022-08-02T01:21:22;15.70;99.90
13256;DHT22;37913;48.370;10.930;2022-08-02T01:24:03;15.80;99.90
13256;DHT22;37913;48.370;10.930;2022-08-02T01:26:42;15.70;99.90
13256;DHT22;37913;48.370;10.930;2022-08-02T01:29:17;15.70;99.90
13256;DHT22;37913;48.370;10.930;2022-08-02T01:31:49;15.70;99.90
13256;DHT22;37913;48.370;10.930;2022-08-02T01:34:23;15.70;99.90
13256;DHT22;37913;48.370;10.930;2022-08-02T01:36:57;15.70;99.90
13256;DHT22;37913;48.370;10.930;2022-08-02T01:39:29;15.70;99.90
13256;DHT22;37913;48.370;10.930;2022-08-02T01:41:57;15.70;99.90
13256;DHT22;37913;48.370;10.930;2022-08-02T01:44:29;15.60;99.90
13256;DHT22;37913;48.370;10.930;2022-08-02T01:47:00;15.60;99.90
13256;DHT22;37913;48.370;10.930;2022-08-02T01:49:29;15.60;99.90
13256;DHT22;37913;48.370;10.930;2022-08-02T01:51:59;15.60;99.90
13256;DHT22;37913;48.370;10.930;2022-08-02T01:54:46;15.50;99.90
13256;DHT22;37913;48.370;10.930;2022-08-02T01:57:15;15.50;99.90
13256;DHT22;37913;48.370;10.930;2022-08-02T01:59:44;15.50;99.90
13256;DHT22;37913;48.370;10.930;2022-08-02T02:02:14;15.50;99.90
13256;DHT22;37913;48.370;10.930;2022-08-02T02:04:43;15.50;99.90
13256;DHT22;37913;48.370;10.930;2022-08-02T02:07:12;15.40;99.90
13256;DHT22;37913;48.370;10.930;2022-08-02T02:09:40;15.30;99.90
13256;DHT22;37913;48.370;10.930;2022-08-02T02:12:11;15.30;99.90
13256;DHT22;37913;48.370;10.930;2022-08-02T02:14:39;15.20;99.90
13256;DHT22;37913;48.370;10.930;2022-08-02T02:17:08;15.20;99.90
13256;DHT22;37913;48.370;10.930;2022-08-02T02:19:36;15.20;99.90
13256;DHT22;37913;48.370;10.930;2022-08-02T02:22:05;15.20;99.90
13256;DHT22;37913;48.370;10.930;2022-08-02T02:24:32;15.30;99.90
13256;DHT22;37913;48.370;10.930;2022-08-02T02:27:00;15.30;99.90
13256;DHT22;37913;48.370;10.930;2022-08-02T02:29:31;15.20;99.90
13256;DHT22;37913;48.370;10.930;2022-08-02T02:31:59;15.30;99.90
13256;DHT22;37913;48.370;10.930;2022-08-02T02:34:31;15.20;99.90
13256;DHT22;37913;48.370;10.930;2022-08-02T02:37:04;15.20;99.90
13256;DHT22;37913;48.370;10.930;2022-08-02T02:39:32;15.20;99.90
13256;DHT22;37913;48.370;10.930;2022-08-02T02:42:01;15.20;99.90
13256;DHT22;37913;48.370;10.930;2022-08-02T02:44:30;15.20;99.90
13256;DHT22;37913;48.370;10.930;2022-08-02T02:46:58;15.20;99.90
13256;DHT22;37913;48.370;10.930;2022-08-02T02:49:31;15.20;99.90
13256;DHT22;37913;48.370;10.930;2022-08-02T02:51:58;15.10;99.90
13256;DHT22;37913;48.370;10.930;2022-08-02T02:54:26;15.10;99.90
13256;DHT22;37913;48.370;10.930;2022-08-02T02:56:54;15.10;99.90
13256;DHT22;37913;48.370;10.930;2022-08-02T02:59:23;15.00;99.90
13256;DHT22;37913;48.370;10.930;2022-08-02T03:01:51;15.00;99.90
13256;DHT22;37913;48.370;10.930;2022-08-02T03:04:19;14.90;99.90
13256;DHT22;37913;48.370;10.930;2022-08-02T03:06:48;14.90;99.90
13256;DHT22;37913;48.370;10.930;2022-08-02T03:09:15;14.90;99.90
13256;DHT22;37913;48.370;10.930;2022-08-02T03:11:42;14.90;99.90
13256;DHT22;37913;48.370;10.930;2022-08-02T03:14:11;14.90;99.90
13256;DHT22;37913;48.370;10.930;2022-08-02T03:16:42;14.80;99.90
13256;DHT22;37913;48.370;10.930;2022-08-02T03:19:10;14.80;99.90
13256;DHT22;37913;48.370;10.930;2022-08-02T03:21:37;14.80;99.90
13256;DHT22;37913;48.370;10.930;2022-08-02T03:24:06;14.90;99.90
13256;DHT22;37913;48.370;10.930;2022-08-02T03:26:33;14.80;99.90
13256;DHT22;37913;48.370;10.930;2022-08-02T03:29:01;14.90;99.90
13256;DHT22;37913;48.370;10.930;2022-08-02T03:31:28;14.90;99.90
13256;DHT22;37913;48.370;10.930;2022-08-02T03:33:55;15.00;99.90
13256;DHT22;37913;48.370;10.930;2022-08-02T03:36:26;15.00;99.90
13256;DHT22;37913;48.370;10.930;2022-08-02T03:38:54;15.00;99.90
13256;DHT22;37913;48.370;10.930;2022-08-02T03:41:23;15.00;99.90
13256;DHT22;37913;48.370;10.930;2022-08-02T03:43:50;14.80;99.90
13256;DHT22;37913;48.370;10.930;2022-08-02T03:46:20;14.80;99.90
13256;DHT22;37913;48.370;10.930;2022-08-02T03:48:50;14.70;99.90
13256;DHT22;37913;48.370;10.930;2022-08-02T03:51:18;14.70;99.90
13256;DHT22;37913;48.370;10.930;2022-08-02T03:53:45;14.70;99.90
13256;DHT22;37913;48.370;10.930;2022-08-02T03:56:14;14.70;99.90
13256;DHT22;37913;48.370;10.930;2022-08-02T03:58:43;14.60;99.90
13256;DHT22;37913;48.370;10.930;2022-08-02T04:01:10;14.60;99.90
13256;DHT22;37913;48.370;10.930;2022-08-02T04:03:37;14.70;99.90
13256;DHT22;37913;48.370;10.930;2022-08-02T04:06:04;14.70;99.90
13256;DHT22;37913;48.370;10.930;2022-08-02T04:08:31;14.60;99.90
13256;DHT22;37913;48.370;10.930;2022-08-02T04:11:00;14.70;99.90
13256;DHT22;37913;48.370;10.930;2022-08-02T04:13:46;14.70;99.90
13256;DHT22;37913;48.370;10.930;2022-08-02T04:16:16;14.70;99.90
13256;DHT22;37913;48.370;10.930;2022-08-02T04:18:49;14.70;99.90
13256;DHT22;37913;48.370;10.930;2022-08-02T04:21:18;14.70;99.90
13256;DHT22;37913;48.370;10.930;2022-08-02T04:23:48;14.70;99.90
13256;DHT22;37913;48.370;10.930;2022-08-02T04:26:16;14.70;99.90
13256;DHT22;37913;48.370;10.930;2022-08-02T04:28:45;14.70;99.90
13256;DHT22;37913;48.370;10.930;2022-08-02T04:31:14;14.80;99.90
13256;DHT22;37913;48.370;10.930;2022-08-02T04:33:42;15.00;99.90
13256;DHT22;37913;48.370;10.930;2022-08-02T04:36:10;15.00;99.90
13256;DHT22;37913;48.370;10.930;2022-08-02T04:38:39;15.10;99.90
13256;DHT22;37913;48.370;10.930;2022-08-02T04:41:06;15.20;99.90
13256;DHT22;37913;48.370;10.930;2022-08-02T04:43:33;15.30;99.90
13256;DHT22;37913;48.370;10.930;2022-08-02T04:46:02;15.40;99.90
13256;DHT22;37913;48.370;10.930;2022-08-02T04:48:29;15.50;99.90
13256;DHT22;37913;48.370;10.930;2022-08-02T04:50:56;15.70;99.90
13256;DHT22;37913;48.370;10.930;2022-08-02T04:53:23;15.90;99.90
13256;DHT22;37913;48.370;10.930;2022-08-02T04:55:50;16.00;99.90
13256;DHT22;37913;48.370;10.930;2022-08-02T04:58:17;16.20;99.90
13256;DHT22;37913;48.370;10.930;2022-08-02T05:00:44;16.30;99.90
13256;DHT22;37913;48.370;10.930;2022-08-02T05:03:13;16.50;99.90
13256;DHT22;37913;48.370;10.930;2022-08-02T05:05:40;16.60;99.90
13256;DHT22;37913;48.370;10.930;2022-08-02T05:08:07;16.70;99.90
13256;DHT22;37913;48.370;10.930;2022-08-02T05:10:34;16.60;99.90
13256;DHT22;37913;48.370;10.930;2022-08-02T05:13:03;16.80;99.90
13256;DHT22;37913;48.370;10.930;2022-08-02T05:15:31;16.60;99.90
13256;DHT22;37913;48.370;10.930;2022-08-02T05:17:58;16.70;99.90
13256;DHT22;37913;48.370;10.930;2022-08-02T05:20:27;16.90;99.90
13256;DHT22;37913;48.370;10.930;2022-08-02T05:22:54;17.20;99.90
13256;DHT22;37913;48.370;10.930;2022-08-02T05:25:21;17.50;99.90
13256;DHT22;37913;48.370;10.930;2022-08-02T05:27:48;17.90;99.90
13256;DHT22;37913;48.370;10.930;2022-08-02T05:30:15;18.00;99.90
13256;DHT22;37913;48.370;10.930;2022-08-02T05:32:46;18.30;99.90
13256;DHT22;37913;48.370;10.930;2022-08-02T05:35:16;18.40;99.90
13256;DHT22;37913;48.370;10.930;2022-08-02T05:37:45;18.30;99.90
13256;DHT22;37913;48.370;10.930;2022-08-02T05:40:12;18.80;99.90
13256;DHT22;37913;48.370;10.930;2022-08-02T05:42:39;18.90;99.90
13256;DHT22;37913;48.370;10.930;2022-08-02T05:45:06;18.90;99.90
13256;DHT22;37913;48.370;10.930;2022-08-02T05:47:34;18.70;99.90
13256;DHT22;37913;48.370;10.930;2022-08-02T05:50:01;19.10;99.90
13256;DHT22;37913;48.370;10.930;2022-08-02T05:52:33;19.70;99.90
13256;DHT22;37913;48.370;10.930;2022-08-02T05:55:05;20.30;99.90
13256;DHT22;37913;48.370;10.930;2022-08-02T05:57:39;20.90;99.90
13256;DHT22;37913;48.370;10.930;2022-08-02T06:00:10;21.20;99.90
13256;DHT22;37913;48.370;10.930;2022-08-02T06:05:32;21.60;99.90
13256;DHT22;37913;48.370;10.930;2022-08-02T06:08:01;21.80;99.90
13256;DHT22;37913;48.370;10.930;2022-08-02T06:10:31;21.60;99.90
13256;DHT22;37913;48.370;10.930;2022-08-02T06:13:06;22.10;99.90
13256;DHT22;37913;48.370;10.930;2022-08-02T06:15:34;22.40;99.90
13256;DHT22;37913;48.370;10.930;2022-08-02T06:18:02;20.50;99.90
13256;DHT22;37913;48.370;10.930;2022-08-02T06:20:29;21.80;99.90
13256;DHT22;37913;48.370;10.930;2022-08-02T06:23:01;22.10;99.90
13256;DHT22;37913;48.370;10.930;2022-08-02T06:25:31;22.50;99.90
13256;DHT22;37913;48.370;10.930;2022-08-02T06:28:00;23.30;99.90
13256;DHT22;37913;48.370;10.930;2022-08-02T06:30:28;22.30;99.90
13256;DHT22;37913;48.370;10.930;2022-08-02T06:32:55;23.60;99.90
13256;DHT22;37913;48.370;10.930;2022-08-02T06:35:25;24.70;99.90
13256;DHT22;37913;48.370;10.930;2022-08-02T06:37:59;25.10;99.90
13256;DHT22;37913;48.370;10.930;2022-08-02T06:40:31;24.10;99.90
13256;DHT22;37913;48.370;10.930;2022-08-02T06:43:08;23.90;99.90
13256;DHT22;37913;48.370;10.930;2022-08-02T06:45:36;24.90;99.90
13256;DHT22;37913;48.370;10.930;2022-08-02T06:48:04;24.80;99.90
13256;DHT22;37913;48.370;10.930;2022-08-02T06:50:31;23.20;99.90
13256;DHT22;37913;48.370;10.930;2022-08-02T06:52:59;22.60;99.90
13256;DHT22;37913;48.370;10.930;2022-08-02T06:55:26;24.20;99.90
13256;DHT22;37913;48.370;10.930;2022-08-02T06:57:55;25.30;99.90
13256;DHT22;37913;48.370;10.930;2022-08-02T07:00:22;26.80;99.90
13256;DHT22;37913;48.370;10.930;2022-08-02T07:02:50;27.30;99.90
13256;DHT22;37913;48.370;10.930;2022-08-02T07:05:17;27.60;99.90
13256;DHT22;37913;48.370;10.930;2022-08-02T07:07:44;27.70;99.90
13256;DHT22;37913;48.370;10.930;2022-08-02T07:10:12;27.90;99.90
13256;DHT22;37913;48.370;10.930;2022-08-02T07:12:39;28.00;99.90
13256;DHT22;37913;48.370;10.930;2022-08-02T07:15:09;27.90;99.90
13256;DHT22;37913;48.370;10.930;2022-08-02T07:17:38;29.20;99.90
13256;DHT22;37913;48.370;10.930;2022-08-02T07:20:06;30.10;99.90
13256;DHT22;37913;48.370;10.930;2022-08-02T07:22:34;31.30;99.90
13256;DHT22;37913;48.370;10.930;2022-08-02T07:25:04;32.20;1.00
13256;DHT22;37913;48.370;10.930;2022-08-02T07:27:31;31.30;1.00
13256;DHT22;37913;48.370;10.930;2022-08-02T07:29:59;30.40;99.90
13256;DHT22;37913;48.370;10.930;2022-08-02T07:32:29;30.60;1.00
13256;DHT22;37913;48.370;10.930;2022-08-02T07:34:57;31.60;99.90
13256;DHT22;37913;48.370;10.930;2022-08-02T07:37:25;33.00;99.90
13256;DHT22;37913;48.370;10.930;2022-08-02T07:39:53;33.10;99.90
13256;DHT22;37913;48.370;10.930;2022-08-02T07:42:20;33.90;99.90
13256;DHT22;37913;48.370;10.930;2022-08-02T07:44:47;34.80;99.90
13256;DHT22;37913;48.370;10.930;2022-08-02T07:47:14;34.10;99.90
13256;DHT22;37913;48.370;10.930;2022-08-02T07:49:43;34.50;99.00
13256;DHT22;37913;48.370;10.930;2022-08-02T07:52:10;34.80;1.00
13256;DHT22;37913;48.370;10.930;2022-08-02T07:54:38;34.20;1.00
13256;DHT22;37913;48.370;10.930;2022-08-02T07:57:07;33.80;99.90
13256;DHT22;37913;48.370;10.930;2022-08-02T07:59:34;34.20;1.00
13256;DHT22;37913;48.370;10.930;2022-08-02T08:02:01;34.80;99.90
13256;DHT22;37913;48.370;10.930;2022-08-02T08:04:28;36.20;1.00
13256;DHT22;37913;48.370;10.930;2022-08-02T08:06:56;35.00;99.90
13256;DHT22;37913;48.370;10.930;2022-08-02T08:09:24;35.90;99.90
13256;DHT22;37913;48.370;10.930;2022-08-02T08:11:51;37.00;99.90
13256;DHT22;37913;48.370;10.930;2022-08-02T08:14:17;38.70;99.90
13256;DHT22;37913;48.370;10.930;2022-08-02T08:16:44;39.20;99.90
13256;DHT22;37913;48.370;10.930;2022-08-02T08:19:11;39.90;99.90
13256;DHT22;37913;48.370;10.930;2022-08-02T08:21:38;36.90;99.90
13256;DHT22;37913;48.370;10.930;2022-08-02T08:24:07;37.60;99.90
13256;DHT22;37913;48.370;10.930;2022-08-02T08:26:34;35.00;99.10
13256;DHT22;37913;48.370;10.930;2022-08-02T08:29:01;35.30;99.90
13256;DHT22;37913;48.370;10.930;2022-08-02T08:31:30;37.20;99.90
13256;DHT22;37913;48.370;10.930;2022-08-02T08:33:58;39.20;99.90
13256;DHT22;37913;48.370;10.930;2022-08-02T08:36:25;40.50;99.90
13256;DHT22;37913;48.370;10.930;2022-08-02T08:38:52;41.70;99.90
13256;DHT22;37913;48.370;10.930;2022-08-02T08:41:20;42.60;99.90
13256;DHT22;37913;48.370;10.930;2022-08-02T08:43:48;42.80;99.90
13256;DHT22;37913;48.370;10.930;2022-08-02T08:46:25;42.80;99.90
13256;DHT22;37913;48.370;10.930;2022-08-02T08:48:53;41.30;91.90
13256;DHT22;37913;48.370;10.930;2022-08-02T08:51:24;36.40;95.70
13256;DHT22;37913;48.370;10.930;2022-08-02T08:53:53;36.10;99.90
13256;DHT22;37913;48.370;10.930;2022-08-02T08:56:29;37.90;99.20
13256;DHT22;37913;48.370;10.930;2022-08-02T08:58:58;39.70;92.00
13256;DHT22;37913;48.370;10.930;2022-08-02T09:01:26;39.70;90.70
13256;DHT22;37913;48.370;10.930;2022-08-02T09:03:52;39.90;90.10
13256;DHT22;37913;48.370;10.930;2022-08-02T09:06:19;40.90;90.30
13256;DHT22;37913;48.370;10.930;2022-08-02T09:08:48;42.10;92.00
13256;DHT22;37913;48.370;10.930;2022-08-02T09:11:16;44.70;87.50
13256;DHT22;37913;48.370;10.930;2022-08-02T09:13:52;45.20;78.30
13256;DHT22;37913;48.370;10.930;2022-08-02T09:16:33;46.30;74.00
13256;DHT22;37913;48.370;10.930;2022-08-02T09:19:00;48.20;65.90
13256;DHT22;37913;48.370;10.930;2022-08-02T09:21:37;45.80;1.00
13256;DHT22;37913;48.370;10.930;2022-08-02T09:24:15;43.00;1.00
13256;DHT22;37913;48.370;10.930;2022-08-02T09:26:43;43.90;1.00
13256;DHT22;37913;48.370;10.930;2022-08-02T09:29:12;45.10;99.90
13256;DHT22;37913;48.370;10.930;2022-08-02T09:31:40;47.00;1.00
13256;DHT22;37913;48.370;10.930;2022-08-02T09:34:07;47.40;1.00
13256;DHT22;37913;48.370;10.930;2022-08-02T09:36:38;46.90;99.90
13256;DHT22;37913;48.370;10.930;2022-08-02T09:39:07;44.40;99.90
13256;DHT22;37913;48.370;10.930;2022-08-02T09:41:36;46.30;1.00
13256;DHT22;37913;48.370;10.930;2022-08-02T09:44:06;48.20;99.90
13256;DHT22;37913;48.370;10.930;2022-08-02T09:46:36;46.70;99.90
13256;DHT22;37913;48.370;10.930;2022-08-02T09:49:06;45.90;99.90
13256;DHT22;37913;48.370;10.930;2022-08-02T09:51:35;45.60;99.90
13256;DHT22;37913;48.370;10.930;2022-08-02T09:54:08;45.30;99.90
13256;DHT22;37913;48.370;10.930;2022-08-02T09:56:41;45.40;99.90
13256;DHT22;37913;48.370;10.930;2022-08-02T09:59:09;44.20;99.90
13256;DHT22;37913;48.370;10.930;2022-08-02T10:01:38;42.50;99.90
13256;DHT22;37913;48.370;10.930;2022-08-02T10:04:07;40.60;99.90
13256;DHT22;37913;48.370;10.930;2022-08-02T10:06:36;39.30;99.90
13256;DHT22;37913;48.370;10.930;2022-08-02T10:09:06;38.00;99.90
13256;DHT22;37913;48.370;10.930;2022-08-02T10:11:34;36.90;1.00
13256;DHT22;37913;48.370;10.930;2022-08-02T10:14:02;35.90;1.00
13256;DHT22;37913;48.370;10.930;2022-08-02T10:16:33;38.50;1.00
13256;DHT22;37913;48.370;10.930;2022-08-02T10:19:02;37.40;1.00
13256;DHT22;37913;48.370;10.930;2022-08-02T10:21:32;34.80;1.00
13256;DHT22;37913;48.370;10.930;2022-08-02T10:24:05;35.30;1.00
13256;DHT22;37913;48.370;10.930;2022-08-02T10:26:33;38.60;1.00
13256;DHT22;37913;48.370;10.930;2022-08-02T10:29:00;41.20;1.00
13256;DHT22;37913;48.370;10.930;2022-08-02T10:31:33;43.20;99.90
13256;DHT22;37913;48.370;10.930;2022-08-02T10:34:10;43.00;99.90
13256;DHT22;37913;48.370;10.930;2022-08-02T10:36:39;45.30;99.90
13256;DHT22;37913;48.370;10.930;2022-08-02T10:39:07;45.80;99.90
13256;DHT22;37913;48.370;10.930;2022-08-02T10:41:42;46.70;99.90
13256;DHT22;37913;48.370;10.930;2022-08-02T10:44:23;49.00;99.90
13256;DHT22;37913;48.370;10.930;2022-08-02T10:46:50;47.80;99.90
13256;DHT22;37913;48.370;10.930;2022-08-02T10:49:20;50.20;99.90
13256;DHT22;37913;48.370;10.930;2022-08-02T10:51:57;51.30;99.90
13256;DHT22;37913;48.370;10.930;2022-08-02T10:54:33;49.60;91.00
13256;DHT22;37913;48.370;10.930;2022-08-02T10:57:01;50.00;98.10
13256;DHT22;37913;48.370;10.930;2022-08-02T10:59:32;50.20;99.90
13256;DHT22;37913;48.370;10.930;2022-08-02T11:02:02;51.20;99.90
13256;DHT22;37913;48.370;10.930;2022-08-02T11:05:02;50.70;99.90
13256;DHT22;37913;48.370;10.930;2022-08-02T11:07:33;50.50;62.40
13256;DHT22;37913;48.370;10.930;2022-08-02T11:10:31;51.20;77.70
13256;DHT22;37913;48.370;10.930;2022-08-02T11:13:05;52.60;64.10
13256;DHT22;37913;48.370;10.930;2022-08-02T11:15:47;52.50;56.50
13256;DHT22;37913;48.370;10.930;2022-08-02T11:18:14;53.00;56.20
13256;DHT22;37913;48.370;10.930;2022-08-02T11:21:19;52.70;46.40
13256;DHT22;37913;48.370;10.930;2022-08-02T11:23:47;48.40;20.60
13256;DHT22;37913;48.370;10.930;2022-08-02T11:26:41;44.80;15.90
13256;DHT22;37913;48.370;10.930;2022-08-02T11:29:09;41.60;1.00
13256;DHT22;37913;48.370;10.930;2022-08-02T11:31:41;39.80;15.40
13256;DHT22;37913;48.370;10.930;2022-08-02T11:34:08;39.50;20.70
13256;DHT22;37913;48.370;10.930;2022-08-02T11:36:49;42.40;27.00
13256;DHT22;37913;48.370;10.930;2022-08-02T11:39:18;45.40;6.10
13256;DHT22;37913;48.370;10.930;2022-08-02T11:41:49;45.40;8.60
13256;DHT22;37913;48.370;10.930;2022-08-02T11:44:16;47.20;15.60
13256;DHT22;37913;48.370;10.930;2022-08-02T11:46:44;49.80;22.10
13256;DHT22;37913;48.370;10.930;2022-08-02T11:49:16;49.10;15.70
13256;DHT22;37913;48.370;10.930;2022-08-02T11:52:00;49.60;37.20
13256;DHT22;37913;48.370;10.930;2022-08-02T11:54:31;47.80;4.70
13256;DHT22;37913;48.370;10.930;2022-08-02T11:57:12;45.30;1.00
13256;DHT22;37913;48.370;10.930;2022-08-02T11:59:40;43.70;1.00
13256;DHT22;37913;48.370;10.930;2022-08-02T12:02:08;45.40;1.00
13256;DHT22;37913;48.370;10.930;2022-08-02T12:04:36;47.50;3.30
13256;DHT22;37913;48.370;10.930;2022-08-02T12:07:05;48.80;7.60
13256;DHT22;37913;48.370;10.930;2022-08-02T12:09:34;49.80;9.20
13256;DHT22;37913;48.370;10.930;2022-08-02T12:12:02;50.70;8.50
13256;DHT22;37913;48.370;10.930;2022-08-02T12:14:30;48.90;1.00
13256;DHT22;37913;48.370;10.930;2022-08-02T12:16:58;43.90;1.00
13256;DHT22;37913;48.370;10.930;2022-08-02T12:19:43;39.70;1.00
13256;DHT22;37913;48.370;10.930;2022-08-02T12:22:15;42.00;1.00
13256;DHT22;37913;48.370;10.930;2022-08-02T12:24:46;44.90;1.00
13256;DHT22;37913;48.370;10.930;2022-08-02T12:27:34;48.10;1.00
13256;DHT22;37913;48.370;10.930;2022-08-02T12:30:05;49.50;1.00
13256;DHT22;37913;48.370;10.930;2022-08-02T12:32:32;49.10;1.00
13256;DHT22;37913;48.370;10.930;2022-08-02T12:35:01;47.20;1.00
13256;DHT22;37913;48.370;10.930;2022-08-02T12:37:29;44.40;1.00
13256;DHT22;37913;48.370;10.930;2022-08-02T12:39:56;44.20;1.00
13256;DHT22;37913;48.370;10.930;2022-08-02T12:42:23;45.10;1.00
13256;DHT22;37913;48.370;10.930;2022-08-02T12:44:52;46.00;1.00
13256;DHT22;37913;48.370;10.930;2022-08-02T12:47:20;44.40;1.00
13256;DHT22;37913;48.370;10.930;2022-08-02T12:50:12;42.80;1.00
13256;DHT22;37913;48.370;10.930;2022-08-02T12:52:42;40.00;1.00
13256;DHT22;37913;48.370;10.930;2022-08-02T12:55:16;37.90;1.00
13256;DHT22;37913;48.370;10.930;2022-08-02T12:57:54;36.60;1.00
13256;DHT22;37913;48.370;10.930;2022-08-02T13:00:23;35.70;1.00
13256;DHT22;37913;48.370;10.930;2022-08-02T13:02:51;34.70;1.00
13256;DHT22;37913;48.370;10.930;2022-08-02T13:05:18;33.60;1.00
13256;DHT22;37913;48.370;10.930;2022-08-02T13:07:48;33.30;1.00
13256;DHT22;37913;48.370;10.930;2022-08-02T13:10:15;32.90;1.00
13256;DHT22;37913;48.370;10.930;2022-08-02T13:12:42;32.80;1.00
13256;DHT22;37913;48.370;10.930;2022-08-02T13:15:13;32.60;1.00
13256;DHT22;37913;48.370;10.930;2022-08-02T13:17:40;33.00;1.00
13256;DHT22;37913;48.370;10.930;2022-08-02T13:20:08;34.50;1.00
13256;DHT22;37913;48.370;10.930;2022-08-02T13:22:36;35.80;1.00
13256;DHT22;37913;48.370;10.930;2022-08-02T13:25:05;38.00;1.00
13256;DHT22;37913;48.370;10.930;2022-08-02T13:27:32;39.70;1.00
13256;DHT22;37913;48.370;10.930;2022-08-02T13:30:00;39.30;1.00
13256;DHT22;37913;48.370;10.930;2022-08-02T13:32:28;37.60;1.00
13256;DHT22;37913;48.370;10.930;2022-08-02T13:34:56;36.80;1.00
13256;DHT22;37913;48.370;10.930;2022-08-02T13:37:23;36.90;1.00
13256;DHT22;37913;48.370;10.930;2022-08-02T13:39:50;37.00;1.00
13256;DHT22;37913;48.370;10.930;2022-08-02T13:42:20;35.70;1.00
13256;DHT22;37913;48.370;10.930;2022-08-02T13:44:49;35.60;1.00
13256;DHT22;37913;48.370;10.930;2022-08-02T13:47:16;35.70;1.00
13256;DHT22;37913;48.370;10.930;2022-08-02T13:49:43;35.50;1.00
13256;DHT22;37913;48.370;10.930;2022-08-02T13:52:10;34.50;1.00
13256;DHT22;37913;48.370;10.930;2022-08-02T13:54:37;34.30;1.00
13256;DHT22;37913;48.370;10.930;2022-08-02T13:57:04;35.40;1.00
13256;DHT22;37913;48.370;10.930;2022-08-02T13:59:33;36.60;1.00
13256;DHT22;37913;48.370;10.930;2022-08-02T14:02:00;37.10;1.00
13256;DHT22;37913;48.370;10.930;2022-08-02T14:04:27;36.60;1.00
13256;DHT22;37913;48.370;10.930;2022-08-02T14:06:55;35.60;1.00
13256;DHT22;37913;48.370;10.930;2022-08-02T14:09:23;33.00;1.00
13256;DHT22;37913;48.370;10.930;2022-08-02T14:11:50;32.70;1.00
13256;DHT22;37913;48.370;10.930;2022-08-02T14:14:17;32.70;1.00
13256;DHT22;37913;48.370;10.930;2022-08-02T14:16:52;32.50;1.00
13256;DHT22;37913;48.370;10.930;2022-08-02T14:19:19;32.70;1.00
13256;DHT22;37913;48.370;10.930;2022-08-02T14:21:46;32.80;1.00
13256;DHT22;37913;48.370;10.930;2022-08-02T14:24:13;32.80;1.00
13256;DHT22;37913;48.370;10.930;2022-08-02T14:26:40;32.80;1.00
13256;DHT22;37913;48.370;10.930;2022-08-02T14:29:08;32.50;1.00
13256;DHT22;37913;48.370;10.930;2022-08-02T14:31:35;32.30;1.00
13256;DHT22;37913;48.370;10.930;2022-08-02T14:34:03;32.00;1.00
13256;DHT22;37913;48.370;10.930;2022-08-02T14:36:30;31.50;1.00
13256;DHT22;37913;48.370;10.930;2022-08-02T14:38:57;31.40;1.00
13256;DHT22;37913;48.370;10.930;2022-08-02T14:41:24;31.10;1.00
13256;DHT22;37913;48.370;10.930;2022-08-02T14:43:51;31.30;1.00
13256;DHT22;37913;48.370;10.930;2022-08-02T14:46:30;31.10;1.00
13256;DHT22;37913;48.370;10.930;2022-08-02T14:48:57;30.80;1.00
13256;DHT22;37913;48.370;10.930;2022-08-02T14:51:28;30.70;1.00
13256;DHT22;37913;48.370;10.930;2022-08-02T14:53:55;30.30;1.00
13256;DHT22;37913;48.370;10.930;2022-08-02T14:56:22;30.60;1.00
13256;DHT22;37913;48.370;10.930;2022-08-02T14:58:49;30.50;1.00
13256;DHT22;37913;48.370;10.930;2022-08-02T15:01:16;30.70;1.00
13256;DHT22;37913;48.370;10.930;2022-08-02T15:03:43;30.90;1.00
13256;DHT22;37913;48.370;10.930;2022-08-02T15:06:10;31.20;1.00
13256;DHT22;37913;48.370;10.930;2022-08-02T15:08:39;30.80;1.00
13256;DHT22;37913;48.370;10.930;2022-08-02T15:11:06;31.30;1.00
13256;DHT22;37913;48.370;10.930;2022-08-02T15:13:33;31.20;1.00
13256;DHT22;37913;48.370;10.930;2022-08-02T15:16:00;31.30;1.00
13256;DHT22;37913;48.370;10.930;2022-08-02T15:18:27;31.10;1.00
13256;DHT22;37913;48.370;10.930;2022-08-02T15:20:54;30.80;1.00
13256;DHT22;37913;48.370;10.930;2022-08-02T15:23:21;30.60;1.00
13256;DHT22;37913;48.370;10.930;2022-08-02T15:25:51;30.30;1.00
13256;DHT22;37913;48.370;10.930;2022-08-02T15:28:18;30.30;1.00
13256;DHT22;37913;48.370;10.930;2022-08-02T15:30:45;30.50;1.00
13256;DHT22;37913;48.370;10.930;2022-08-02T15:33:12;30.60;1.00
13256;DHT22;37913;48.370;10.930;2022-08-02T15:35:39;30.50;1.00
13256;DHT22;37913;48.370;10.930;2022-08-02T15:38:06;30.50;1.00